28PA weather

Yarrow Airport
Schwenksville, Pennsylvania, United States

Public forecast

Using degrees Fahrenheit for public forecast. Weather courtesy of forecast.io.

METAR (pilot weather report)

Closest report is Heritage Field, 5.1 nm (9.5 km) W. Retrieved 2019/07/21 02:54 UTC (48 minutes ago):

KPTW 210254Z AUTO 00000KT 9SM CLR 28/24 A2986 RMK AO2 SLP107 T02780244 50001

TAF (pilot weather forecast)

Forecast is more than 12 hours old.

Closest forecast is Northeast Philadelphia Airport, 22.4 nm (41.5 km) ESE. Retrieved 2019/07/20 00:36 UTC (1 day ago):

TAF KPNE 202334Z 2100/2124 26010KT P6SM SCT040 FM210300 25005KT P6SM SCT090 FM211200 29007KT P6SM SCT120 FM211700 27011G18KT P6SM SCT040 FM212300 27010KT P6SM SCT040